createdAt,value
2019-06-08T00:01:25.762Z,26.93
2019-06-08T00:03:57.966Z,24.83
2019-06-08T00:06:27.631Z,23.47
2019-06-08T00:08:59.010Z,24.50
2019-06-08T00:11:28.585Z,21.40
2019-06-08T00:13:58.059Z,21.80
2019-06-08T00:16:27.570Z,21.60
2019-06-08T00:18:57.100Z,19.23
2019-06-08T00:21:26.586Z,21.20
2019-06-08T00:23:56.370Z,18.73
2019-06-08T00:26:25.866Z,18.57
2019-06-08T00:28:55.349Z,17.13
2019-06-08T00:31:24.927Z,24.50
2019-06-08T00:33:54.381Z,18.37
2019-06-08T00:36:25.041Z,19.10
2019-06-08T00:38:54.627Z,15.77
2019-06-08T00:41:25.430Z,16.07
2019-06-08T00:43:57.461Z,23.10
2019-06-08T00:46:27.475Z,13.50
2019-06-08T00:48:56.968Z,14.63
2019-06-08T00:51:26.455Z,14.90
2019-06-08T00:53:55.950Z,18.57
2019-06-08T00:56:25.966Z,11.73
2019-06-08T00:58:55.660Z,11.97
2019-06-08T01:01:27.978Z,10.37
2019-06-08T01:03:56.687Z,10.53
2019-06-08T01:06:27.536Z,8.83
2019-06-08T01:08:57.489Z,7.50
2019-06-08T01:11:27.262Z,4.77
2019-06-08T01:13:56.996Z,5.57
2019-06-08T01:16:27.058Z,6.30
2019-06-08T01:18:56.767Z,3.87
2019-06-08T01:21:27.633Z,4.37
2019-06-08T01:23:57.338Z,5.10
2019-06-08T01:26:28.209Z,3.67
2019-06-08T01:28:58.197Z,3.17
2019-06-08T01:31:28.400Z,3.00
2019-06-08T01:33:58.329Z,3.50
2019-06-08T01:36:29.163Z,4.80
2019-06-08T01:38:58.822Z,3.10
2019-06-08T01:41:29.549Z,2.37
2019-06-08T01:43:59.776Z,3.37
2019-06-08T01:46:30.257Z,4.20
2019-06-08T01:49:00.295Z,1.70
2019-06-08T01:51:30.581Z,2.43
2019-06-08T01:54:00.284Z,2.30
2019-06-08T01:56:29.762Z,5.20
2019-06-08T01:58:59.237Z,2.40
2019-06-08T02:01:29.917Z,3.43
2019-06-08T02:03:59.418Z,2.70
2019-06-08T02:06:30.289Z,4.53
2019-06-08T02:09:00.139Z,3.23
2019-06-08T02:11:30.808Z,3.13
2019-06-08T02:14:00.430Z,1.53
2019-06-08T02:16:31.328Z,2.33
2019-06-08T02:19:02.155Z,3.40
2019-06-08T02:21:32.795Z,1.90
2019-06-08T02:24:02.414Z,2.70
2019-06-08T02:26:34.386Z,2.53
2019-06-08T02:29:03.125Z,1.50
2019-06-08T02:31:34.806Z,1.53
2019-06-08T02:34:04.304Z,3.70
2019-06-08T02:36:35.387Z,2.53
2019-06-08T02:39:07.407Z,2.67
2019-06-08T02:41:37.544Z,4.17
2019-06-08T02:44:07.222Z,2.10
2019-06-08T02:46:38.185Z,1.60
2019-06-08T02:49:07.872Z,2.97
2019-06-08T02:51:38.197Z,2.17
2019-06-08T02:54:07.796Z,2.60
2019-06-08T02:56:39.268Z,1.43
2019-06-08T02:59:09.057Z,1.83
2019-06-08T03:01:40.658Z,4.27
2019-06-08T03:04:10.345Z,5.57
2019-06-08T03:06:41.683Z,3.17
2019-06-08T03:09:11.138Z,2.87
2019-06-08T03:11:41.362Z,2.90
2019-06-08T03:14:10.893Z,6.43
2019-06-08T03:16:41.560Z,3.10
2019-06-08T03:19:21.968Z,4.37
2019-06-08T03:21:42.680Z,3.37
2019-06-08T03:24:12.150Z,5.37
2019-06-08T03:26:43.904Z,5.17
2019-06-08T03:29:12.747Z,7.27
2019-06-08T03:31:52.824Z,8.00
2019-06-08T03:34:13.708Z,10.20
2019-06-08T03:36:54.910Z,3.13
2019-06-08T03:39:14.960Z,3.17
2019-06-08T03:41:45.387Z,9.33
2019-06-08T03:44:14.821Z,6.07
2019-06-08T03:46:45.966Z,3.53
2019-06-08T03:49:15.536Z,5.47
2019-06-08T03:51:48.613Z,5.33
2019-06-08T03:54:16.308Z,3.83
2019-06-08T03:56:46.192Z,7.50
2019-06-08T03:59:15.926Z,13.10
2019-06-08T04:01:46.191Z,6.03
2019-06-08T04:04:15.672Z,5.57
2019-06-08T04:06:45.762Z,5.07
2019-06-08T04:09:15.541Z,3.83
2019-06-08T04:11:46.825Z,5.23
2019-06-08T04:14:16.839Z,6.10
2019-06-08T04:16:46.854Z,5.40
2019-06-08T04:19:16.577Z,3.00
2019-06-08T04:21:46.346Z,3.47
2019-06-08T04:24:16.296Z,4.83
2019-06-08T04:26:47.200Z,3.83
2019-06-08T04:29:16.805Z,3.17
2019-06-08T04:31:46.394Z,3.50
2019-06-08T04:34:15.853Z,2.87
2019-06-08T04:36:46.391Z,6.30
2019-06-08T04:39:16.556Z,5.87
2019-06-08T04:41:47.173Z,3.60
2019-06-08T04:44:17.008Z,7.60
2019-06-08T04:46:47.876Z,3.23
2019-06-08T04:49:17.988Z,2.50
2019-06-08T04:51:49.378Z,4.57
2019-06-08T04:54:18.659Z,4.30
2019-06-08T04:56:49.312Z,2.97
2019-06-08T04:59:19.092Z,2.67
2019-06-08T05:01:49.231Z,2.37
2019-06-08T05:04:18.910Z,1.90
2019-06-08T05:06:49.578Z,1.47
2019-06-08T05:09:19.556Z,3.10
2019-06-08T05:11:49.904Z,2.50
2019-06-08T05:14:19.791Z,1.90
2019-06-08T05:16:49.779Z,2.87
2019-06-08T05:19:19.571Z,1.87
2019-06-08T05:21:49.855Z,4.10
2019-06-08T05:24:19.544Z,1.67
2019-06-08T05:26:49.630Z,2.20
2019-06-08T05:29:19.336Z,2.57
2019-06-08T05:31:49.750Z,2.60
2019-06-08T05:34:19.428Z,3.47
2019-06-08T05:36:50.068Z,1.57
2019-06-08T05:39:19.651Z,2.27
2019-06-08T05:41:49.875Z,1.10
2019-06-08T05:44:19.357Z,3.93
2019-06-08T05:46:50.017Z,2.33
2019-06-08T05:49:19.820Z,2.63
2019-06-08T05:51:50.108Z,2.63
2019-06-08T05:54:19.788Z,4.53
2019-06-08T05:56:50.401Z,4.17
2019-06-08T05:59:20.255Z,3.37
2019-06-08T06:01:51.036Z,2.37
2019-06-08T06:04:21.340Z,3.40
2019-06-08T06:06:51.032Z,3.57
2019-06-08T06:09:20.799Z,2.47
2019-06-08T06:11:51.207Z,2.67
2019-06-08T06:14:20.793Z,2.50
2019-06-08T06:16:51.325Z,4.37
2019-06-08T06:19:21.338Z,2.03
2019-06-08T06:21:51.559Z,2.77
2019-06-08T06:24:21.231Z,5.67
2019-06-08T06:26:51.629Z,2.00
2019-06-08T06:29:21.332Z,4.37
2019-06-08T06:31:52.107Z,2.70
2019-06-08T06:34:21.905Z,2.60
2019-06-08T06:36:52.162Z,2.17
2019-06-08T06:39:21.726Z,3.83
2019-06-08T06:41:52.163Z,3.53
2019-06-08T06:44:21.648Z,2.07
2019-06-08T06:46:52.413Z,3.57
2019-06-08T06:49:21.985Z,3.43
2019-06-08T06:51:52.581Z,1.90
2019-06-08T06:54:22.295Z,2.97
2019-06-08T06:56:51.928Z,3.07
2019-06-08T06:59:21.387Z,2.60
2019-06-08T07:01:57.514Z,3.80
2019-06-08T07:04:26.782Z,4.53
2019-06-08T07:06:56.533Z,3.70
2019-06-08T07:09:25.980Z,1.33
2019-06-08T07:11:56.677Z,2.93
2019-06-08T07:14:26.385Z,2.87
2019-06-08T07:16:56.318Z,2.37
2019-06-08T07:19:27.051Z,2.47
2019-06-08T07:21:56.499Z,3.47
2019-06-08T07:24:25.995Z,2.40
2019-06-08T07:26:55.445Z,3.27
2019-06-08T07:29:25.899Z,2.40
2019-06-08T07:31:55.477Z,2.57
2019-06-08T07:34:24.937Z,1.43
2019-06-08T07:36:55.530Z,3.47
2019-06-08T07:39:25.117Z,3.17
2019-06-08T07:41:55.841Z,5.00
2019-06-08T07:44:25.551Z,3.60
2019-06-08T07:46:55.855Z,3.77
2019-06-08T07:49:25.974Z,4.87
2019-06-08T07:52:07.536Z,2.33
2019-06-08T07:54:30.043Z,1.47
2019-06-08T07:56:59.520Z,1.37
2019-06-08T07:59:29.248Z,2.30
2019-06-08T08:01:59.202Z,2.07
2019-06-08T08:04:28.685Z,1.43
2019-06-08T08:06:58.788Z,1.23
2019-06-08T08:09:37.560Z,3.10
2019-06-08T08:12:07.016Z,1.87
2019-06-08T08:14:36.762Z,2.53
2019-06-08T08:17:06.250Z,2.60
2019-06-08T08:19:38.124Z,5.97
2019-06-08T08:22:22.340Z,3.40
2019-06-08T08:24:38.846Z,2.17
2019-06-08T08:27:08.624Z,2.73
2019-06-08T08:29:43.978Z,3.13
2019-06-08T08:32:13.475Z,6.43
2019-06-08T08:34:43.170Z,2.83
2019-06-08T08:37:12.686Z,1.30
2019-06-08T08:39:43.120Z,3.67
2019-06-08T08:42:12.717Z,3.30
2019-06-08T08:44:42.489Z,1.40
2019-06-08T08:47:13.586Z,3.20
2019-06-08T08:49:43.398Z,3.50
2019-06-08T08:52:12.843Z,4.40
2019-06-08T08:54:42.910Z,2.97
2019-06-08T08:57:12.449Z,2.67
2019-06-08T08:59:41.945Z,5.93
2019-06-08T09:02:11.728Z,4.93
2019-06-08T09:04:41.174Z,3.13
2019-06-08T09:07:11.261Z,2.73
2019-06-08T09:09:40.906Z,3.90
2019-06-08T09:12:10.463Z,2.67
2019-06-08T09:14:41.629Z,4.97
2019-06-08T09:17:11.377Z,2.53
2019-06-08T09:19:40.845Z,4.50
2019-06-08T09:22:10.286Z,4.27
2019-06-08T09:24:40.254Z,2.80
2019-06-08T09:27:09.960Z,2.23
2019-06-08T09:29:39.906Z,2.33
2019-06-08T09:32:09.579Z,2.50
2019-06-08T09:34:39.038Z,1.17
2019-06-08T09:37:08.683Z,5.50
2019-06-08T09:39:38.867Z,4.30
2019-06-08T09:42:09.084Z,7.77
2019-06-08T09:44:38.703Z,3.97
2019-06-08T09:47:12.564Z,5.93
2019-06-08T09:49:39.324Z,3.07
2019-06-08T09:52:09.069Z,3.77
2019-06-08T09:54:38.914Z,2.83
2019-06-08T09:57:09.047Z,3.07
2019-06-08T09:59:38.996Z,7.63
2019-06-08T10:02:12.393Z,3.70
2019-06-08T10:04:39.599Z,3.40
2019-06-08T10:07:09.189Z,5.73
2019-06-08T10:09:38.697Z,5.37
2019-06-08T10:12:09.903Z,3.30
2019-06-08T10:14:39.694Z,4.23
2019-06-08T10:17:09.272Z,4.47
2019-06-08T10:19:38.841Z,4.67
2019-06-08T10:22:08.673Z,3.40
2019-06-08T10:24:41.344Z,2.77
2019-06-08T10:27:11.721Z,4.70
2019-06-08T10:29:40.856Z,3.40
2019-06-08T10:32:12.345Z,4.63
2019-06-08T10:34:41.812Z,3.03
2019-06-08T10:37:13.309Z,5.33
2019-06-08T10:39:42.694Z,3.70
2019-06-08T10:42:12.398Z,6.05
2019-06-08T10:44:41.841Z,3.60
2019-06-08T10:47:11.970Z,3.30
2019-06-08T10:49:41.868Z,3.03
2019-06-08T10:52:12.387Z,4.20
2019-06-08T10:54:41.914Z,3.12
2019-06-08T10:57:11.384Z,5.65
2019-06-08T10:59:40.920Z,4.95
2019-06-08T11:02:13.975Z,3.85
2019-06-08T11:04:43.368Z,4.70
2019-06-08T11:07:15.991Z,6.58
2019-06-08T11:09:44.519Z,6.35
2019-06-08T11:12:15.242Z,6.10
2019-06-08T11:14:48.040Z,5.22
2019-06-08T11:17:17.955Z,2.72
2019-06-08T11:19:48.075Z,6.33
2019-06-08T11:22:18.206Z,5.10
2019-06-08T11:24:48.679Z,4.15
2019-06-08T11:27:18.768Z,6.97
2019-06-08T11:29:48.432Z,4.90
2019-06-08T11:32:18.423Z,5.78
2019-06-08T11:34:48.802Z,7.90
2019-06-08T11:37:20.994Z,4.42
2019-06-08T11:39:49.571Z,3.12
2019-06-08T11:42:19.308Z,6.75
2019-06-08T11:44:51.238Z,3.25
2019-06-08T11:47:20.371Z,1.65
2019-06-08T11:49:50.056Z,5.85
2019-06-08T11:52:19.688Z,2.95
2019-06-08T11:54:49.149Z,4.53
2019-06-08T11:57:18.979Z,4.37
2019-06-08T11:59:49.112Z,4.20
2019-06-08T12:02:18.649Z,4.42
2019-06-08T12:04:48.126Z,5.97
2019-06-08T12:07:17.569Z,1.65
2019-06-08T12:09:49.913Z,1.62
2019-06-08T12:12:21.227Z,2.25
2019-06-08T12:14:49.725Z,1.90
2019-06-08T12:17:22.421Z,2.95
2019-06-08T12:19:50.393Z,4.65
2019-06-08T12:22:21.863Z,4.55
2019-06-08T12:24:51.417Z,2.47
2019-06-08T12:27:29.892Z,3.02
2019-06-08T12:29:52.056Z,3.50
2019-06-08T12:32:21.516Z,3.55
2019-06-08T12:34:50.964Z,4.58
2019-06-08T12:37:22.294Z,2.42
2019-06-08T12:39:51.589Z,3.87
2019-06-08T12:42:24.844Z,4.53
2019-06-08T12:44:52.236Z,2.58
2019-06-08T12:47:26.883Z,2.52
2019-06-08T12:49:53.393Z,5.17
2019-06-08T12:52:23.150Z,2.37
2019-06-08T12:55:02.487Z,3.33
2019-06-08T12:57:23.791Z,6.83
2019-06-08T12:59:53.239Z,4.60
2019-06-08T13:02:24.302Z,3.47
2019-06-08T13:04:54.032Z,2.00
2019-06-08T13:07:24.434Z,2.80
2019-06-08T13:09:53.996Z,4.28
2019-06-08T13:12:23.481Z,3.22
2019-06-08T13:14:52.922Z,4.85
2019-06-08T13:17:22.745Z,4.40
2019-06-08T13:19:52.189Z,3.05
2019-06-08T13:22:27.982Z,3.00
2019-06-08T13:24:52.813Z,2.67
2019-06-08T13:27:23.255Z,3.42
2019-06-08T13:29:53.159Z,3.12
2019-06-08T13:32:22.611Z,3.62
2019-06-08T13:34:52.068Z,3.33
2019-06-08T13:37:22.213Z,3.33
2019-06-08T13:39:51.745Z,4.95
2019-06-08T13:42:23.005Z,4.92
2019-06-08T13:44:52.599Z,1.95
2019-06-08T13:47:23.143Z,2.27
2019-06-08T13:49:52.574Z,3.33
2019-06-08T13:52:23.751Z,2.50
2019-06-08T13:54:53.906Z,2.90
2019-06-08T13:57:25.080Z,3.87
2019-06-08T13:59:54.935Z,1.77
2019-06-08T14:02:28.394Z,4.83
2019-06-08T14:04:55.552Z,2.02
2019-06-08T14:07:31.212Z,7.30
2019-06-08T14:09:58.169Z,2.25
2019-06-08T14:12:30.619Z,8.50
2019-06-08T14:14:58.550Z,3.55
2019-06-08T14:17:27.958Z,4.70
2019-06-08T14:19:59.333Z,1.95
2019-06-08T14:22:30.312Z,4.35
2019-06-08T14:25:00.254Z,5.80
2019-06-08T14:27:33.017Z,1.82
2019-06-08T14:30:01.235Z,2.30
2019-06-08T14:32:30.691Z,3.55
2019-06-08T14:35:02.793Z,2.20
2019-06-08T14:37:31.327Z,2.92
2019-06-08T14:40:01.014Z,3.20
2019-06-08T14:42:31.715Z,4.25
2019-06-08T14:45:01.333Z,3.92
2019-06-08T14:47:30.792Z,3.60
2019-06-08T14:50:01.559Z,3.45
2019-06-08T14:52:31.926Z,4.70
2019-06-08T14:55:01.387Z,6.40
2019-06-08T14:57:31.028Z,2.77
2019-06-08T15:00:00.500Z,2.65
2019-06-08T15:02:31.384Z,2.62
2019-06-08T15:05:01.700Z,5.67
2019-06-08T15:07:32.674Z,3.52
2019-06-08T15:10:02.394Z,3.50
2019-06-08T15:12:31.853Z,2.98
2019-06-08T15:15:01.304Z,5.67
2019-06-08T15:17:32.112Z,2.60
2019-06-08T15:20:01.750Z,3.22
2019-06-08T15:22:31.991Z,3.98
2019-06-08T15:25:01.578Z,4.50
2019-06-08T15:27:33.242Z,2.30
2019-06-08T15:30:02.188Z,3.52
2019-06-08T15:32:35.283Z,2.60
2019-06-08T15:35:03.873Z,5.70
2019-06-08T15:37:33.317Z,4.03
2019-06-08T15:40:03.361Z,9.03
2019-06-08T15:42:33.563Z,11.40
2019-06-08T15:45:04.231Z,2.22
2019-06-08T15:47:33.695Z,2.27
2019-06-08T15:50:04.693Z,4.75
2019-06-08T15:52:34.363Z,3.25
2019-06-08T15:55:05.220Z,3.65
2019-06-08T15:57:37.977Z,3.12
2019-06-08T16:00:09.666Z,5.20
2019-06-08T16:02:39.230Z,2.85
2019-06-08T16:05:08.916Z,3.83
2019-06-08T16:07:38.382Z,4.17
2019-06-08T16:10:08.592Z,2.75
2019-06-08T16:12:38.046Z,5.03
2019-06-08T16:15:08.712Z,2.85
2019-06-08T16:17:38.417Z,5.42
2019-06-08T16:20:08.029Z,5.40
2019-06-08T16:22:37.802Z,5.35
2019-06-08T16:25:07.318Z,6.40
2019-06-08T16:27:36.762Z,3.62
2019-06-08T16:30:09.472Z,4.15
2019-06-08T16:32:39.651Z,4.50
2019-06-08T16:35:09.593Z,4.53
2019-06-08T16:37:39.918Z,5.50
2019-06-08T16:40:09.772Z,4.83
2019-06-08T16:42:39.244Z,4.37
2019-06-08T16:45:08.858Z,5.80
2019-06-08T16:47:43.665Z,3.85
2019-06-08T16:50:24.146Z,8.48
2019-06-08T16:52:45.163Z,4.95
2019-06-08T16:55:14.695Z,6.22
2019-06-08T16:57:44.243Z,4.28
2019-06-08T17:00:31.611Z,4.17
2019-06-08T17:02:50.756Z,3.92
2019-06-08T17:05:20.350Z,3.45
2019-06-08T17:07:50.246Z,3.10
2019-06-08T17:10:19.688Z,4.42
2019-06-08T17:12:49.687Z,5.75
2019-06-08T17:15:19.262Z,3.75
2019-06-08T17:17:48.710Z,2.30
2019-06-08T17:20:18.190Z,5.65
2019-06-08T17:22:47.634Z,2.92
2019-06-08T17:25:17.138Z,6.78
2019-06-08T17:27:46.631Z,5.35
2019-06-08T17:30:16.050Z,5.20
2019-06-08T17:32:45.508Z,5.08
2019-06-08T17:35:14.958Z,3.58
2019-06-08T17:37:45.010Z,2.90
2019-06-08T17:40:14.646Z,3.92
2019-06-08T17:42:44.098Z,5.45
2019-06-08T17:45:14.564Z,8.55
2019-06-08T17:47:44.001Z,6.70
2019-06-08T17:50:13.714Z,4.30
2019-06-08T17:52:43.204Z,4.28
2019-06-08T17:55:13.189Z,3.73
2019-06-08T17:57:52.749Z,5.37
2019-06-08T18:00:14.119Z,6.53
2019-06-08T18:02:45.241Z,5.73
2019-06-08T18:05:14.829Z,4.23
2019-06-08T18:07:45.681Z,5.43
2019-06-08T18:10:17.798Z,5.60
2019-06-08T18:12:58.804Z,6.40
2019-06-08T18:15:28.686Z,4.90
2019-06-08T18:17:58.215Z,5.07
2019-06-08T18:20:28.282Z,4.10
2019-06-08T18:22:58.021Z,5.60
2019-06-08T18:25:27.935Z,6.63
2019-06-08T18:28:09.745Z,3.37
2019-06-08T18:30:29.198Z,6.30
2019-06-08T18:32:58.666Z,5.93
2019-06-08T18:35:28.414Z,4.63
2019-06-08T18:37:58.013Z,7.93
2019-06-08T18:40:27.794Z,4.57
2019-06-08T18:42:57.989Z,4.70
2019-06-08T18:45:27.786Z,6.33
2019-06-08T18:47:57.722Z,3.17
2019-06-08T18:50:28.470Z,5.70
2019-06-08T18:52:58.181Z,6.07
2019-06-08T18:55:27.953Z,6.80
2019-06-08T18:57:57.557Z,4.43
2019-06-08T19:00:39.793Z,6.13
2019-06-08T19:03:09.512Z,3.73
2019-06-08T19:05:43.536Z,6.40
2019-06-08T19:08:11.276Z,5.87
2019-06-08T19:10:42.343Z,5.10
2019-06-08T19:13:11.941Z,6.60
2019-06-08T19:15:44.437Z,8.83
2019-06-08T19:18:12.799Z,12.70
2019-06-08T19:20:44.869Z,11.67
2019-06-08T19:23:13.428Z,16.17
2019-06-08T19:25:45.832Z,16.13
2019-06-08T19:28:35.157Z,20.83
2019-06-08T19:30:51.776Z,20.03
2019-06-08T19:33:22.220Z,18.60
2019-06-08T19:35:53.968Z,12.67
2019-06-08T19:38:23.362Z,16.30
2019-06-08T19:40:54.122Z,12.17
2019-06-08T19:43:23.617Z,6.27
2019-06-08T19:45:53.199Z,7.47
2019-06-08T19:48:22.837Z,7.10
2019-06-08T19:50:54.262Z,8.70
2019-06-08T19:53:23.449Z,7.10
2019-06-08T19:55:54.180Z,7.70
2019-06-08T19:58:23.837Z,9.77
2019-06-08T20:00:54.931Z,7.43
2019-06-08T20:03:24.614Z,13.17
2019-06-08T20:05:55.053Z,12.00
2019-06-08T20:08:24.763Z,9.63
2019-06-08T20:10:54.238Z,13.23
2019-06-08T20:13:23.716Z,9.47
2019-06-08T20:15:58.245Z,8.83
2019-06-08T20:18:24.390Z,12.43
2019-06-08T20:20:54.569Z,19.97
2019-06-08T20:23:24.084Z,11.97
2019-06-08T20:25:53.852Z,19.83
2019-06-08T20:28:23.310Z,19.20
2019-06-08T20:30:52.777Z,16.57
2019-06-08T20:33:22.240Z,15.73
2019-06-08T20:35:51.977Z,17.20
2019-06-08T20:38:35.053Z,14.37
2019-06-08T20:40:57.818Z,15.10
2019-06-08T20:43:27.069Z,14.60
2019-06-08T20:45:57.510Z,20.97
2019-06-08T20:48:27.632Z,19.70
2019-06-08T20:50:57.341Z,14.20
2019-06-08T20:53:28.281Z,12.43
2019-06-08T20:55:58.253Z,12.00
2019-06-08T20:58:28.333Z,7.90
2019-06-08T21:00:57.965Z,11.73
2019-06-08T21:03:27.997Z,8.47
2019-06-08T21:05:58.167Z,15.10
2019-06-08T21:08:28.274Z,12.70
2019-06-08T21:10:58.703Z,11.90
2019-06-08T21:13:28.318Z,17.43
2019-06-08T21:16:00.540Z,18.50
2019-06-08T21:18:28.982Z,10.40
2019-06-08T21:20:58.476Z,16.90
2019-06-08T21:23:31.715Z,17.03
2019-06-08T21:26:00.144Z,15.97
2019-06-08T21:28:29.837Z,16.43
2019-06-08T21:31:02.238Z,25.03
2019-06-08T21:33:30.536Z,20.17
2019-06-08T21:36:04.964Z,16.03
2019-06-08T21:38:31.551Z,11.23
2019-06-08T21:41:02.921Z,14.63
2019-06-08T21:43:32.251Z,12.67
2019-06-08T21:46:01.730Z,13.33
2019-06-08T21:48:31.233Z,14.97
2019-06-08T21:51:01.763Z,20.97
2019-06-08T21:53:31.331Z,17.70
2019-06-08T21:56:01.075Z,18.50
2019-06-08T21:58:30.528Z,15.63
2019-06-08T22:01:01.151Z,16.00
2019-06-08T22:03:30.643Z,15.33
2019-06-08T22:06:00.284Z,20.83
2019-06-08T22:08:29.784Z,19.27
2019-06-08T22:11:00.670Z,18.97
2019-06-08T22:13:30.259Z,17.20
2019-06-08T22:16:02.066Z,12.63
2019-06-08T22:18:31.187Z,15.30
2019-06-08T22:21:01.211Z,12.33
2019-06-08T22:23:30.871Z,11.43
2019-06-08T22:26:01.202Z,10.50
2019-06-08T22:28:30.670Z,11.77
2019-06-08T22:31:01.629Z,11.07
2019-06-08T22:33:31.296Z,10.70
2019-06-08T22:36:00.992Z,9.73
2019-06-08T22:38:30.730Z,12.43
2019-06-08T22:41:01.653Z,11.80
2019-06-08T22:43:31.467Z,12.50
2019-06-08T22:46:02.262Z,12.13
2019-06-08T22:48:32.192Z,14.00
2019-06-08T22:51:03.186Z,15.00
2019-06-08T22:53:32.804Z,14.00
2019-06-08T22:56:03.056Z,13.67
2019-06-08T22:58:33.530Z,12.83
2019-06-08T23:01:06.411Z,12.03
2019-06-08T23:03:35.402Z,12.27
2019-06-08T23:06:08.159Z,11.17
2019-06-08T23:08:37.467Z,13.53
2019-06-08T23:11:08.427Z,12.10
2019-06-08T23:13:38.214Z,10.03
2019-06-08T23:16:08.851Z,12.23
2019-06-08T23:18:38.545Z,15.33
2019-06-08T23:21:08.871Z,11.03
2019-06-08T23:23:38.489Z,11.77
2019-06-08T23:26:10.321Z,12.70
2019-06-08T23:28:39.393Z,12.87
2019-06-08T23:31:19.690Z,12.97
2019-06-08T23:33:40.325Z,11.67
2019-06-08T23:36:46.589Z,12.80
2019-06-08T23:38:41.236Z,10.50
2019-06-08T23:41:10.701Z,13.80
2019-06-08T23:43:40.444Z,12.23
2019-06-08T23:46:09.892Z,10.60
2019-06-08T23:48:39.343Z,13.53
2019-06-08T23:51:10.932Z,13.57
2019-06-08T23:53:40.141Z,9.43
2019-06-08T23:56:11.750Z,9.20
2019-06-08T23:58:40.794Z,9.33
